createdAt,value
2023-03-22T00:01:23.494Z,97512.00
2023-03-22T00:03:52.751Z,97511.00
2023-03-22T00:06:20.097Z,97513.00
2023-03-22T00:08:51.587Z,97515.00
2023-03-22T00:11:21.212Z,97510.00
2023-03-22T00:13:48.492Z,97513.00
2023-03-22T00:16:15.804Z,97514.00
2023-03-22T00:18:43.026Z,97503.00
2023-03-22T00:21:16.304Z,97509.00
2023-03-22T00:23:45.133Z,97516.00
2023-03-22T00:26:13.558Z,97517.00
2023-03-22T00:28:41.663Z,97505.00
2023-03-22T00:31:09.414Z,97510.00
2023-03-22T00:33:37.301Z,97511.00
2023-03-22T00:36:08.874Z,97502.00
2023-03-22T00:38:43.665Z,97509.00
2023-03-22T00:41:21.408Z,97509.00
2023-03-22T00:43:50.417Z,97502.00
2023-03-22T00:46:20.988Z,97493.00
2023-03-22T00:48:48.909Z,97486.00
2023-03-22T00:51:16.411Z,97491.00
2023-03-22T00:53:44.125Z,97477.00
2023-03-22T00:56:16.348Z,97487.00
2023-03-22T00:58:44.160Z,97490.00
2023-03-22T01:01:14.752Z,97490.00
2023-03-22T01:03:44.711Z,97490.00
2023-03-22T01:06:12.052Z,97479.00
2023-03-22T01:08:39.531Z,97478.00
2023-03-22T01:11:08.370Z,97475.00
2023-03-22T01:13:39.573Z,97474.00
2023-03-22T01:16:08.003Z,97478.00
2023-03-22T01:18:36.620Z,97464.00
2023-03-22T01:21:04.357Z,97458.00
2023-03-22T01:23:31.937Z,97465.00
2023-03-22T01:25:59.330Z,97452.00
2023-03-22T01:28:27.321Z,97452.00
2023-03-22T01:30:55.994Z,97450.00
2023-03-22T01:33:23.273Z,97444.00
2023-03-22T01:35:50.589Z,97440.00
2023-03-22T01:38:17.788Z,97438.00
2023-03-22T01:40:44.873Z,97433.00
2023-03-22T01:43:17.406Z,97444.00
2023-03-22T01:45:49.152Z,97435.00
2023-03-22T01:48:28.667Z,97439.00
2023-03-22T01:51:10.910Z,97441.00
2023-03-22T01:53:52.619Z,97443.00
2023-03-22T01:56:28.016Z,97439.00
2023-03-22T01:58:56.676Z,97436.00
2023-03-22T02:01:24.515Z,97440.00
2023-03-22T02:04:07.374Z,97438.00
2023-03-22T02:09:13.750Z,97443.00
2023-03-22T02:11:46.722Z,97441.00
2023-03-22T02:14:42.948Z,97443.00
2023-03-22T02:17:15.864Z,97437.00
2023-03-22T02:20:10.982Z,97445.00
2023-03-22T02:23:14.440Z,97449.00
2023-03-22T02:26:41.630Z,97443.00
2023-03-22T02:29:22.409Z,97433.00
2023-03-22T02:32:41.274Z,97430.00
2023-03-22T02:35:21.537Z,97426.00
2023-03-22T02:38:26.108Z,97426.00
2023-03-22T02:41:14.289Z,97425.00
2023-03-22T02:44:22.350Z,97428.00
2023-03-22T02:47:20.609Z,97431.00
2023-03-22T02:50:09.430Z,97428.00
2023-03-22T02:52:50.311Z,97437.00
2023-03-22T02:55:38.301Z,97422.00
2023-03-22T02:58:30.918Z,97430.00
2023-03-22T03:01:05.935Z,97434.00
2023-03-22T03:03:37.747Z,97430.00
2023-03-22T03:06:08.541Z,97435.00
2023-03-22T03:08:38.423Z,97435.00
2023-03-22T03:11:06.097Z,97426.00
2023-03-22T03:13:33.331Z,97442.00
2023-03-22T03:16:02.904Z,97443.00
2023-03-22T03:18:40.811Z,97439.00
2023-03-22T03:21:35.575Z,97432.00
2023-03-22T03:24:29.505Z,97419.00
2023-03-22T03:27:08.452Z,97424.00
2023-03-22T03:30:11.410Z,97408.00
2023-03-22T03:32:52.727Z,97408.00
2023-03-22T03:35:29.801Z,97415.00
2023-03-22T03:38:12.898Z,97422.00
2023-03-22T03:40:46.045Z,97421.00
2023-03-22T03:43:14.458Z,97427.00
2023-03-22T03:45:42.246Z,97434.00
2023-03-22T03:48:22.691Z,97429.00
2023-03-22T03:50:53.055Z,97433.00
2023-03-22T03:53:20.274Z,97438.00
2023-03-22T03:55:47.414Z,97427.00
2023-03-22T03:58:16.784Z,97431.00
2023-03-22T04:00:46.521Z,97429.00
2023-03-22T04:03:14.500Z,97432.00
2023-03-22T04:05:41.836Z,97432.00
2023-03-22T04:08:09.835Z,97441.00
2023-03-22T04:10:37.137Z,97437.00
2023-03-22T04:13:04.294Z,97438.00
2023-03-22T04:15:31.491Z,97444.00
2023-03-22T04:17:59.174Z,97438.00
2023-03-22T04:20:27.296Z,97441.00
2023-03-22T04:22:54.377Z,97441.00
2023-03-22T04:25:22.961Z,97429.00
2023-03-22T04:27:51.485Z,97433.00
2023-03-22T04:30:22.970Z,97427.00
2023-03-22T04:32:50.596Z,97431.00
2023-03-22T04:35:18.432Z,97429.00
2023-03-22T04:37:45.825Z,97427.00
2023-03-22T04:40:16.172Z,97433.00
2023-03-22T04:42:44.851Z,97421.00
2023-03-22T04:45:13.701Z,97411.00
2023-03-22T04:47:41.003Z,97408.00
2023-03-22T04:50:09.532Z,97400.00
2023-03-22T04:52:36.689Z,97398.00
2023-03-22T04:55:04.309Z,97398.00
2023-03-22T04:57:31.473Z,97404.00
2023-03-22T04:59:58.596Z,97411.00
2023-03-22T05:02:25.798Z,97407.00
2023-03-22T05:04:52.914Z,97412.00
2023-03-22T05:07:19.992Z,97415.00
2023-03-22T05:09:47.329Z,97420.00
2023-03-22T05:12:14.525Z,97414.00
2023-03-22T05:14:41.787Z,97414.00
2023-03-22T05:17:09.026Z,97409.00
2023-03-22T05:19:36.541Z,97411.00
2023-03-22T05:22:03.545Z,97416.00
2023-03-22T05:24:31.793Z,97416.00
2023-03-22T05:27:01.138Z,97422.00
2023-03-22T05:29:28.824Z,97422.00
2023-03-22T05:31:55.979Z,97434.00
2023-03-22T05:34:23.121Z,97428.00
2023-03-22T05:36:51.673Z,97437.00
2023-03-22T05:39:19.128Z,97426.00
2023-03-22T05:41:46.723Z,97435.00
2023-03-22T05:44:13.974Z,97435.00
2023-03-22T05:46:41.207Z,97442.00
2023-03-22T05:49:09.638Z,97451.00
2023-03-22T05:51:41.927Z,97445.00
2023-03-22T05:54:09.749Z,97447.00
2023-03-22T05:56:36.998Z,97455.00
2023-03-22T05:59:04.971Z,97454.00
2023-03-22T06:01:33.662Z,97459.00
2023-03-22T06:04:01.588Z,97458.00
2023-03-22T06:06:28.758Z,97453.00
2023-03-22T06:09:04.272Z,97455.00
2023-03-22T06:11:41.721Z,97453.00
2023-03-22T06:14:08.973Z,97452.00
2023-03-22T06:16:36.374Z,97458.00
2023-03-22T06:19:03.538Z,97452.00
2023-03-22T06:21:30.675Z,97455.00
2023-03-22T06:23:58.014Z,97451.00
2023-03-22T06:26:25.386Z,97451.00
2023-03-22T06:28:52.462Z,97448.00
2023-03-22T06:31:19.792Z,97455.00
2023-03-22T06:33:47.034Z,97449.00
2023-03-22T06:36:14.303Z,97450.00
2023-03-22T06:38:41.372Z,97450.00
2023-03-22T06:41:08.509Z,97446.00
2023-03-22T06:43:35.616Z,97452.00
2023-03-22T06:46:02.750Z,97449.00
2023-03-22T06:48:30.236Z,97438.00
2023-03-22T06:50:57.326Z,97446.00
2023-03-22T06:53:24.356Z,97444.00
2023-03-22T06:55:55.219Z,97442.00
2023-03-22T06:58:22.686Z,97453.00
2023-03-22T07:00:49.916Z,97456.00
2023-03-22T07:03:17.000Z,97457.00
2023-03-22T07:05:44.290Z,97457.00
2023-03-22T07:08:12.182Z,97462.00
2023-03-22T07:10:39.605Z,97460.00
2023-03-22T07:13:06.851Z,97461.00
2023-03-22T07:15:34.588Z,97472.00
2023-03-22T07:18:02.668Z,97459.00
2023-03-22T07:20:29.808Z,97461.00
2023-03-22T07:22:57.473Z,97459.00
2023-03-22T07:25:24.655Z,97460.00
2023-03-22T07:27:51.856Z,97455.00
2023-03-22T07:30:19.061Z,97462.00
2023-03-22T07:32:46.293Z,97459.00
2023-03-22T07:35:13.393Z,97458.00
2023-03-22T07:37:40.777Z,97452.00
2023-03-22T07:40:08.910Z,97457.00
2023-03-22T07:42:36.090Z,97464.00
2023-03-22T07:45:03.959Z,97460.00
2023-03-22T07:47:40.468Z,97447.00
2023-03-22T07:50:09.918Z,97456.00
2023-03-22T07:52:37.225Z,97457.00
2023-03-22T07:55:05.206Z,97451.00
2023-03-22T07:57:32.427Z,97449.00
2023-03-22T07:59:59.822Z,97455.00
2023-03-22T08:02:27.109Z,97451.00
2023-03-22T08:04:56.644Z,97443.00
2023-03-22T08:07:27.513Z,97451.00
2023-03-22T08:09:54.618Z,97452.00
2023-03-22T08:12:21.774Z,97453.00
2023-03-22T08:14:51.232Z,97447.00
2023-03-22T08:17:19.280Z,97453.00
2023-03-22T08:19:46.598Z,97445.00
2023-03-22T08:22:13.881Z,97443.00
2023-03-22T08:24:41.020Z,97442.00
2023-03-22T08:27:08.412Z,97440.00
2023-03-22T08:29:35.828Z,97445.00
2023-03-22T08:32:04.022Z,97441.00
2023-03-22T08:34:33.431Z,97443.00
2023-03-22T08:37:00.654Z,97443.00
2023-03-22T08:39:28.253Z,97433.00
2023-03-22T08:41:56.407Z,97447.00
2023-03-22T08:44:23.489Z,97445.00
2023-03-22T08:46:50.889Z,97440.00
2023-03-22T08:49:18.249Z,97440.00
2023-03-22T08:51:45.765Z,97442.00
2023-03-22T08:54:13.664Z,97442.00
2023-03-22T08:56:41.915Z,97439.00
2023-03-22T08:59:10.273Z,97441.00
2023-03-22T09:01:37.762Z,97439.00
2023-03-22T09:04:06.816Z,97434.00
2023-03-22T09:06:35.181Z,97437.00
2023-03-22T09:09:02.336Z,97429.00
2023-03-22T09:11:29.596Z,97431.00
2023-03-22T09:13:56.757Z,97436.00
2023-03-22T09:16:24.139Z,97442.00
2023-03-22T09:18:51.315Z,97428.00
2023-03-22T09:21:18.569Z,97426.00
2023-03-22T09:23:47.988Z,97427.00
2023-03-22T09:26:15.287Z,97427.00
2023-03-22T09:28:42.597Z,97422.00
2023-03-22T09:31:11.022Z,97419.00
2023-03-22T09:33:41.408Z,97421.00
2023-03-22T09:36:12.156Z,97420.00
2023-03-22T09:38:41.442Z,97422.00
2023-03-22T09:41:54.304Z,97417.00
2023-03-22T09:44:31.710Z,97415.00
2023-03-22T09:47:01.118Z,97409.00
2023-03-22T09:49:52.592Z,97413.00
2023-03-22T09:52:20.627Z,97406.00
2023-03-22T09:54:48.002Z,97409.00
2023-03-22T09:57:32.886Z,97405.00
2023-03-22T10:00:47.918Z,97410.00
2023-03-22T10:03:34.003Z,97408.00
2023-03-22T10:06:22.495Z,97401.00
2023-03-22T10:09:03.621Z,97401.00
2023-03-22T10:11:49.814Z,97404.00
2023-03-22T10:14:35.353Z,97403.00
2023-03-22T10:17:10.383Z,97397.00
2023-03-22T10:20:06.481Z,97396.00
2023-03-22T10:22:42.235Z,97395.00
2023-03-22T10:25:17.169Z,97396.00
2023-03-22T10:27:47.062Z,97393.00
2023-03-22T10:30:26.036Z,97382.00
2023-03-22T10:33:03.419Z,97385.00
2023-03-22T10:35:32.824Z,97391.00
2023-03-22T10:38:04.354Z,97388.00
2023-03-22T10:40:36.680Z,97386.00
2023-03-22T10:43:20.879Z,97378.00
2023-03-22T10:45:49.077Z,97382.00
2023-03-22T10:48:29.281Z,97372.00
2023-03-22T10:50:58.856Z,97370.00
2023-03-22T10:53:46.046Z,97369.00
2023-03-22T10:56:16.572Z,97363.00
2023-03-22T10:58:43.974Z,97357.00
2023-03-22T11:01:14.991Z,97364.00
2023-03-22T11:03:51.382Z,97356.00
2023-03-22T11:06:25.128Z,97360.00
2023-03-22T11:08:58.466Z,97354.00
2023-03-22T11:11:38.023Z,97347.00
2023-03-22T11:14:23.472Z,97354.00
2023-03-22T11:17:06.733Z,97351.00
2023-03-22T11:19:42.172Z,97343.00
2023-03-22T11:22:33.602Z,97336.00
2023-03-22T11:25:01.895Z,97343.00
2023-03-22T11:27:33.525Z,97336.00
2023-03-22T11:30:28.960Z,97326.00
2023-03-22T11:33:18.131Z,97330.00
2023-03-22T11:35:53.519Z,97323.00
2023-03-22T11:38:48.841Z,97329.00
2023-03-22T11:41:29.124Z,97319.00
2023-03-22T11:44:01.970Z,97321.00
2023-03-22T11:46:30.874Z,97317.00
2023-03-22T11:49:02.649Z,97319.00
2023-03-22T11:51:35.108Z,97316.00
2023-03-22T11:54:13.669Z,97317.00
2023-03-22T11:56:46.302Z,97319.00
2023-03-22T11:59:37.408Z,97301.00
2023-03-22T12:02:32.584Z,97309.00
2023-03-22T12:05:19.355Z,97302.00
2023-03-22T12:07:50.623Z,97307.00
2023-03-22T12:10:27.234Z,97299.00
2023-03-22T12:13:07.548Z,97299.00
2023-03-22T12:15:48.747Z,97298.00
2023-03-22T12:18:24.715Z,97290.00
2023-03-22T12:21:02.197Z,97277.00
2023-03-22T12:23:37.613Z,97283.00
2023-03-22T12:26:18.064Z,97276.00
2023-03-22T12:29:17.034Z,97273.00
2023-03-22T12:32:02.082Z,97274.00
2023-03-22T12:34:50.909Z,97273.00
2023-03-22T12:37:25.732Z,97266.00
2023-03-22T12:40:23.040Z,97270.00
2023-03-22T12:43:33.921Z,97274.00
2023-03-22T12:46:05.032Z,97273.00
2023-03-22T12:48:52.408Z,97260.00
2023-03-22T12:51:19.793Z,97260.00
2023-03-22T12:53:53.587Z,97257.00
2023-03-22T12:56:39.224Z,97248.00
2023-03-22T12:59:15.916Z,97240.00
2023-03-22T13:02:00.911Z,97246.00
2023-03-22T13:04:36.842Z,97240.00
2023-03-22T13:07:30.733Z,97238.00
2023-03-22T13:10:00.466Z,97233.00
2023-03-22T13:12:34.552Z,97231.00
2023-03-22T13:15:13.686Z,97222.00
2023-03-22T13:17:45.701Z,97225.00
2023-03-22T13:20:15.156Z,97227.00
2023-03-22T13:22:48.259Z,97220.00
2023-03-22T13:25:19.541Z,97222.00
2023-03-22T13:27:53.939Z,97215.00
2023-03-22T13:30:25.321Z,97215.00
2023-03-22T13:33:10.810Z,97216.00
2023-03-22T13:35:52.727Z,97211.00
2023-03-22T13:38:30.505Z,97212.00
2023-03-22T13:41:24.934Z,97211.00
2023-03-22T13:43:56.404Z,97206.00
2023-03-22T13:46:23.834Z,97208.00
2023-03-22T13:49:00.330Z,97197.00
2023-03-22T13:51:31.888Z,97203.00
2023-03-22T13:54:14.165Z,97197.00
2023-03-22T13:56:43.918Z,97184.00
2023-03-22T14:00:09.553Z,97183.00
2023-03-22T14:02:42.566Z,97178.00
2023-03-22T14:05:22.471Z,97182.00
2023-03-22T14:07:58.512Z,97173.00
2023-03-22T14:10:45.415Z,97180.00
2023-03-22T14:13:46.595Z,97180.00
2023-03-22T14:16:22.610Z,97165.00
2023-03-22T14:18:50.515Z,97164.00
2023-03-22T14:21:24.138Z,97164.00
